createdAt,value
2019-03-31T00:01:13.350Z,53.40
2019-03-31T00:04:19.691Z,53.30
2019-03-31T00:07:26.092Z,53.50
2019-03-31T00:10:32.634Z,52.90
2019-03-31T00:13:39.143Z,52.20
2019-03-31T00:16:46.651Z,51.70
2019-03-31T00:19:52.967Z,53.40
2019-03-31T00:22:59.279Z,52.30
2019-03-31T00:26:05.603Z,54.00
2019-03-31T00:29:11.815Z,55.10
2019-03-31T00:32:18.340Z,55.70
2019-03-31T00:35:24.621Z,56.50
2019-03-31T00:38:30.880Z,56.70
2019-03-31T00:41:37.264Z,56.80
2019-03-31T00:44:43.625Z,57.10
2019-03-31T00:47:49.992Z,57.10
2019-03-31T00:50:56.363Z,57.30
2019-03-31T00:54:02.634Z,57.50
2019-03-31T00:57:09.031Z,57.40
2019-03-31T01:00:36.896Z,57.70
2019-03-31T01:03:45.176Z,57.50
2019-03-31T01:06:53.999Z,57.60
2019-03-31T01:10:00.579Z,58.00
2019-03-31T01:13:07.563Z,57.90
2019-03-31T01:16:14.453Z,57.90
2019-03-31T01:19:21.977Z,58.00
2019-03-31T01:22:28.356Z,58.00
2019-03-31T01:25:35.191Z,58.10
2019-03-31T01:28:41.723Z,58.30
2019-03-31T01:31:50.602Z,58.30
2019-03-31T01:34:56.499Z,58.30
2019-03-31T01:38:03.022Z,58.20
2019-03-31T01:41:09.395Z,58.20
2019-03-31T01:44:15.618Z,58.20
2019-03-31T01:47:22.304Z,58.50
2019-03-31T01:50:29.907Z,58.40
2019-03-31T01:53:36.256Z,58.60
2019-03-31T01:56:44.765Z,58.50
2019-03-31T01:59:50.535Z,58.70
2019-03-31T02:02:56.834Z,58.40
2019-03-31T02:06:04.327Z,58.70
2019-03-31T02:09:10.878Z,58.40
2019-03-31T02:12:17.135Z,58.60
2019-03-31T02:15:23.503Z,58.50
2019-03-31T02:18:29.958Z,58.50
2019-03-31T02:21:36.252Z,58.60
2019-03-31T02:24:42.519Z,58.70
2019-03-31T02:27:48.783Z,58.60
2019-03-31T02:30:55.053Z,58.50
2019-03-31T02:34:01.345Z,58.60
2019-03-31T02:37:07.798Z,58.60
2019-03-31T02:40:14.200Z,58.70
2019-03-31T02:43:20.483Z,58.80
2019-03-31T02:46:26.754Z,58.80
2019-03-31T02:49:33.175Z,59.20
2019-03-31T02:52:39.469Z,58.70
2019-03-31T02:55:46.113Z,58.40
2019-03-31T02:58:54.789Z,58.60
2019-03-31T03:02:02.753Z,58.80
2019-03-31T03:05:19.693Z,58.70
2019-03-31T03:08:19.821Z,58.60
2019-03-31T03:11:27.745Z,58.80
2019-03-31T03:14:37.681Z,59.50
2019-03-31T03:17:44.009Z,58.60
2019-03-31T03:20:50.271Z,58.60
2019-03-31T03:23:56.888Z,58.60
2019-03-31T03:31:24.493Z,58.70
2019-03-31T03:34:30.731Z,58.60
2019-03-31T03:37:36.974Z,58.80
2019-03-31T03:40:43.351Z,58.60
2019-03-31T03:43:55.739Z,58.60
2019-03-31T03:46:57.668Z,58.50
2019-03-31T03:50:04.108Z,58.50
2019-03-31T03:53:10.477Z,58.40
2019-03-31T03:56:16.833Z,58.50
2019-03-31T03:59:23.136Z,58.50
2019-03-31T04:02:29.681Z,58.50
2019-03-31T04:05:36.051Z,58.50
2019-03-31T04:08:42.315Z,58.40
2019-03-31T04:11:48.576Z,58.50
2019-03-31T04:14:54.844Z,58.50
2019-03-31T04:18:01.221Z,58.20
2019-03-31T04:21:07.586Z,59.00
2019-03-31T04:24:13.948Z,58.50
2019-03-31T04:27:20.227Z,58.50
2019-03-31T04:30:26.599Z,58.20
2019-03-31T04:33:49.626Z,58.40
2019-03-31T04:36:40.658Z,58.40
2019-03-31T04:39:46.963Z,58.40
2019-03-31T04:42:53.300Z,58.30
2019-03-31T04:45:59.575Z,58.50
2019-03-31T04:49:05.836Z,58.30
2019-03-31T04:52:12.331Z,58.40
2019-03-31T04:55:18.572Z,58.50
2019-03-31T04:58:24.983Z,58.80
2019-03-31T05:01:31.314Z,59.00
2019-03-31T05:04:37.677Z,59.00
2019-03-31T05:07:44.160Z,59.20
2019-03-31T05:10:50.426Z,59.40
2019-03-31T05:13:56.735Z,59.30
2019-03-31T05:17:02.952Z,59.40
2019-03-31T05:20:41.900Z,59.50
2019-03-31T05:23:48.261Z,59.40
2019-03-31T05:26:54.519Z,59.50
2019-03-31T05:30:00.784Z,59.40
2019-03-31T05:33:07.277Z,59.50
2019-03-31T05:36:13.631Z,59.40
2019-03-31T05:39:19.900Z,59.40
2019-03-31T05:42:26.272Z,59.30
2019-03-31T05:45:32.734Z,59.50
2019-03-31T05:48:40.174Z,59.50
2019-03-31T05:51:46.507Z,59.40
2019-03-31T05:54:52.768Z,59.40
2019-03-31T05:57:59.037Z,59.30
2019-03-31T06:01:05.523Z,59.20
2019-03-31T06:04:11.914Z,58.90
2019-03-31T06:07:18.144Z,59.10
2019-03-31T06:10:24.407Z,59.30
2019-03-31T06:13:30.796Z,59.40
2019-03-31T06:16:37.658Z,60.10
2019-03-31T06:19:44.040Z,60.30
2019-03-31T06:22:50.438Z,60.30
2019-03-31T06:25:56.664Z,60.20
2019-03-31T06:29:02.975Z,60.00
2019-03-31T06:32:09.423Z,59.90
2019-03-31T06:35:15.787Z,59.50
2019-03-31T06:38:22.055Z,59.20
2019-03-31T06:41:28.416Z,58.80
2019-03-31T06:44:37.995Z,58.60
2019-03-31T06:47:42.699Z,58.30
2019-03-31T06:50:48.956Z,58.20
2019-03-31T06:53:55.319Z,57.80
2019-03-31T06:57:01.587Z,57.50
2019-03-31T07:00:09.027Z,57.10
2019-03-31T07:03:15.467Z,56.90
2019-03-31T07:06:21.867Z,56.70
2019-03-31T07:09:39.468Z,56.50
2019-03-31T07:12:45.779Z,56.50
2019-03-31T07:15:52.131Z,56.40
2019-03-31T07:18:58.472Z,56.30
2019-03-31T07:22:04.848Z,56.20
2019-03-31T07:25:13.104Z,54.50
2019-03-31T07:28:20.683Z,54.50
2019-03-31T07:31:27.127Z,54.20
2019-03-31T07:34:33.527Z,54.70
2019-03-31T07:37:47.216Z,54.90
2019-03-31T07:40:48.341Z,55.40
2019-03-31T07:43:54.831Z,55.30
2019-03-31T07:47:01.105Z,54.90
2019-03-31T07:50:08.520Z,54.90
2019-03-31T07:53:14.874Z,54.50
2019-03-31T07:56:21.379Z,54.10
2019-03-31T07:59:27.895Z,53.90
2019-03-31T08:02:34.291Z,53.50
2019-03-31T08:05:40.695Z,53.50
2019-03-31T08:08:47.027Z,53.40
2019-03-31T08:11:53.551Z,55.00
2019-03-31T08:14:59.942Z,54.10
2019-03-31T08:18:06.235Z,53.40
2019-03-31T08:21:12.751Z,53.20
2019-03-31T08:24:19.199Z,53.50
2019-03-31T08:27:25.592Z,54.60
2019-03-31T08:30:31.968Z,55.10
2019-03-31T08:33:39.409Z,55.00
2019-03-31T08:36:45.828Z,54.70
2019-03-31T08:39:52.147Z,55.10
2019-03-31T08:43:00.024Z,55.50
2019-03-31T08:46:06.472Z,54.90
2019-03-31T08:49:12.904Z,54.40
2019-03-31T08:52:19.404Z,53.60
2019-03-31T08:55:25.779Z,53.10
2019-03-31T08:58:32.219Z,53.40
2019-03-31T09:01:38.691Z,53.60
2019-03-31T09:04:45.047Z,53.60
2019-03-31T09:07:51.324Z,54.00
2019-03-31T09:10:57.935Z,54.20
2019-03-31T09:14:04.527Z,53.90
2019-03-31T09:17:11.130Z,54.70
2019-03-31T09:20:18.197Z,54.80
2019-03-31T09:23:24.505Z,53.00
2019-03-31T09:26:30.880Z,52.00
2019-03-31T09:29:37.259Z,50.90
2019-03-31T09:32:43.637Z,50.40
2019-03-31T09:35:50.088Z,52.90
2019-03-31T09:38:56.463Z,53.80
2019-03-31T09:42:02.887Z,51.60
2019-03-31T09:45:09.920Z,53.10
2019-03-31T09:48:16.295Z,53.20
2019-03-31T09:51:22.756Z,55.10
2019-03-31T09:54:30.363Z,58.30
2019-03-31T09:57:36.837Z,56.20
2019-03-31T10:00:52.010Z,57.30
2019-03-31T10:03:58.363Z,56.40
2019-03-31T10:07:04.775Z,55.10
2019-03-31T10:10:16.767Z,57.40
2019-03-31T10:13:23.124Z,56.00
2019-03-31T10:16:29.589Z,55.50
2019-03-31T10:19:36.151Z,55.00
2019-03-31T10:22:42.672Z,57.10
2019-03-31T10:25:49.004Z,56.80
2019-03-31T10:28:55.475Z,56.50
2019-03-31T10:32:02.904Z,56.20
2019-03-31T10:35:09.636Z,55.80
2019-03-31T10:38:16.160Z,55.40
2019-03-31T10:41:22.583Z,55.50
2019-03-31T10:44:30.028Z,55.80
2019-03-31T10:47:36.241Z,55.90
2019-03-31T10:50:43.539Z,55.80
2019-03-31T10:53:50.167Z,55.40
2019-03-31T10:56:56.484Z,55.30
2019-03-31T11:00:02.767Z,54.80
2019-03-31T11:03:10.484Z,54.50
2019-03-31T11:06:16.825Z,54.40
2019-03-31T11:09:23.187Z,54.20
2019-03-31T11:12:29.589Z,54.60
2019-03-31T11:15:35.969Z,54.80
2019-03-31T11:18:42.450Z,55.00
2019-03-31T11:22:16.395Z,54.90
2019-03-31T11:25:27.504Z,54.80
2019-03-31T11:28:30.727Z,54.80
2019-03-31T11:31:37.063Z,54.60
2019-03-31T11:34:43.361Z,54.10
2019-03-31T11:37:49.739Z,53.50
2019-03-31T11:40:56.143Z,53.40
2019-03-31T11:44:02.580Z,53.30
2019-03-31T11:47:09.008Z,53.10
2019-03-31T11:50:15.720Z,53.00
2019-03-31T11:53:22.204Z,53.10
2019-03-31T11:56:28.464Z,53.20
2019-03-31T11:59:34.928Z,53.40
2019-03-31T12:02:41.408Z,53.40
2019-03-31T12:05:47.958Z,53.50
2019-03-31T12:08:54.307Z,53.30
2019-03-31T12:12:00.584Z,52.70
2019-03-31T12:15:09.418Z,52.70
2019-03-31T12:18:15.892Z,52.50
2019-03-31T12:21:22.356Z,52.20
2019-03-31T12:24:28.716Z,52.30
2019-03-31T12:27:35.170Z,52.50
2019-03-31T12:30:41.567Z,52.70
2019-03-31T12:33:47.931Z,53.10
2019-03-31T12:36:54.223Z,53.30
2019-03-31T12:40:00.512Z,53.20
2019-03-31T12:43:06.983Z,53.10
2019-03-31T12:46:13.315Z,52.70
2019-03-31T12:49:19.721Z,52.60
2019-03-31T12:52:25.956Z,52.70
2019-03-31T12:55:32.316Z,53.20
2019-03-31T12:58:38.584Z,53.10
2019-03-31T13:01:45.067Z,52.90
2019-03-31T13:04:51.430Z,52.90
2019-03-31T13:07:57.797Z,52.90
2019-03-31T13:11:04.272Z,52.70
2019-03-31T13:14:10.647Z,52.40
2019-03-31T13:17:17.016Z,52.40
2019-03-31T13:20:23.271Z,52.80
2019-03-31T13:23:29.576Z,52.70
2019-03-31T13:26:35.911Z,52.40
2019-03-31T13:29:42.388Z,52.50
2019-03-31T13:32:47.415Z,52.20
2019-03-31T13:35:53.616Z,51.90
2019-03-31T13:39:00.125Z,51.50
2019-03-31T13:42:06.351Z,51.40
2019-03-31T13:45:13.024Z,51.30
2019-03-31T13:48:19.287Z,51.60
2019-03-31T13:51:25.556Z,51.70
2019-03-31T13:54:31.867Z,52.00
2019-03-31T13:57:39.839Z,52.10
2019-03-31T14:00:46.117Z,51.90
2019-03-31T14:03:52.515Z,51.60
2019-03-31T14:06:58.743Z,51.40
2019-03-31T14:10:05.683Z,51.00
2019-03-31T14:13:13.098Z,51.10
2019-03-31T14:16:19.392Z,51.30
2019-03-31T14:19:25.704Z,51.50
2019-03-31T14:22:31.916Z,51.50
2019-03-31T14:25:38.184Z,51.60
2019-03-31T14:28:44.458Z,51.50
2019-03-31T14:31:52.123Z,51.50
2019-03-31T14:34:58.663Z,51.40
2019-03-31T14:38:05.001Z,51.30
2019-03-31T14:41:11.367Z,51.10
2019-03-31T14:44:17.666Z,51.10
2019-03-31T14:47:23.902Z,51.10
2019-03-31T14:50:34.984Z,51.10
2019-03-31T14:53:41.247Z,51.20
2019-03-31T14:56:47.548Z,51.00
2019-03-31T14:59:53.927Z,50.60
2019-03-31T15:03:00.247Z,50.30
2019-03-31T15:06:06.574Z,50.30
2019-03-31T15:09:12.782Z,50.10
2019-03-31T15:12:19.166Z,50.30
2019-03-31T15:15:25.571Z,50.50
2019-03-31T15:18:31.899Z,50.60
2019-03-31T15:21:44.089Z,50.70
2019-03-31T15:24:47.367Z,50.80
2019-03-31T15:27:53.771Z,50.70
2019-03-31T15:31:00.172Z,50.50
2019-03-31T15:34:06.411Z,50.30
2019-03-31T15:37:12.814Z,50.10
2019-03-31T15:40:19.290Z,49.70
2019-03-31T15:43:25.615Z,49.40
2019-03-31T15:46:31.920Z,49.70
2019-03-31T15:49:38.146Z,49.70
2019-03-31T15:52:44.559Z,49.90
2019-03-31T15:55:50.932Z,50.10
2019-03-31T15:58:58.396Z,50.10
2019-03-31T16:02:04.786Z,50.10
2019-03-31T16:05:12.982Z,49.90
2019-03-31T16:08:18.831Z,49.80
2019-03-31T16:11:24.587Z,49.50
2019-03-31T16:14:30.343Z,49.40
2019-03-31T16:17:36.195Z,49.30
2019-03-31T16:20:41.944Z,49.20
2019-03-31T16:23:47.799Z,49.40
2019-03-31T16:26:53.471Z,49.50
2019-03-31T16:29:59.218Z,49.40
2019-03-31T16:33:06.987Z,49.40
2019-03-31T16:36:12.366Z,49.50
2019-03-31T16:39:18.119Z,49.50
2019-03-31T16:42:23.879Z,49.50
2019-03-31T16:45:31.340Z,49.40
2019-03-31T16:48:37.235Z,49.40
2019-03-31T16:51:43.057Z,49.30
2019-03-31T16:54:48.776Z,48.80
2019-03-31T16:57:54.496Z,48.60
2019-03-31T17:01:00.153Z,48.40
2019-03-31T17:04:06.211Z,48.40
2019-03-31T17:07:11.863Z,48.20
2019-03-31T17:10:17.659Z,48.50
2019-03-31T17:13:23.683Z,48.30
2019-03-31T17:16:29.537Z,48.40
2019-03-31T17:19:35.284Z,48.40
2019-03-31T17:22:40.823Z,48.20
2019-03-31T17:25:46.544Z,48.20
2019-03-31T17:28:52.534Z,48.20
2019-03-31T17:31:59.227Z,48.20
2019-03-31T17:35:05.295Z,48.80
2019-03-31T17:38:11.059Z,48.40
2019-03-31T17:41:17.171Z,48.40
2019-03-31T17:44:22.980Z,48.30
2019-03-31T17:47:28.937Z,48.50
2019-03-31T17:50:34.827Z,48.40
2019-03-31T17:53:40.552Z,48.40
2019-03-31T17:56:47.231Z,48.40
2019-03-31T17:59:53.083Z,48.50
2019-03-31T18:02:58.947Z,48.40
2019-03-31T18:06:04.735Z,48.40
2019-03-31T18:09:10.543Z,48.40
2019-03-31T18:12:16.300Z,48.50
2019-03-31T18:15:22.055Z,48.40
2019-03-31T18:18:27.807Z,48.40
2019-03-31T18:21:33.711Z,48.50
2019-03-31T18:24:39.537Z,48.50
2019-03-31T18:27:45.395Z,48.50
2019-03-31T18:30:51.086Z,48.50
2019-03-31T18:33:56.943Z,48.50
2019-03-31T18:37:02.643Z,48.40
2019-03-31T18:40:08.724Z,48.40
2019-03-31T18:43:14.580Z,49.60
2019-03-31T18:46:20.460Z,48.90
2019-03-31T18:49:26.394Z,48.80
2019-03-31T18:52:32.138Z,48.60
2019-03-31T18:55:47.547Z,48.50
2019-03-31T18:59:12.339Z,48.40
2019-03-31T19:02:29.399Z,48.30
2019-03-31T19:05:56.959Z,48.20
2019-03-31T19:09:20.249Z,48.20
2019-03-31T19:12:38.779Z,48.00
2019-03-31T19:16:04.011Z,47.90
2019-03-31T19:19:31.854Z,47.80
2019-03-31T19:22:55.880Z,47.60
2019-03-31T19:26:20.893Z,47.50
2019-03-31T19:29:58.028Z,47.50
2019-03-31T19:33:30.062Z,47.50
2019-03-31T19:37:00.847Z,47.20
2019-03-31T19:40:24.084Z,47.00
2019-03-31T19:43:51.848Z,46.90
2019-03-31T19:47:34.785Z,47.60
2019-03-31T19:50:58.458Z,46.80
2019-03-31T19:54:21.620Z,46.80
2019-03-31T19:57:55.325Z,46.70
2019-03-31T20:01:16.643Z,46.70
2019-03-31T20:04:59.643Z,46.70
2019-03-31T20:08:24.358Z,46.50
2019-03-31T20:11:40.792Z,46.10
2019-03-31T20:15:22.006Z,45.90
2019-03-31T20:18:47.996Z,45.80
2019-03-31T20:22:12.739Z,45.90
2019-03-31T20:25:52.559Z,45.70
2019-03-31T20:29:03.943Z,45.70
2019-03-31T20:32:31.923Z,45.20
2019-03-31T20:35:55.506Z,45.10
2019-03-31T20:39:20.120Z,44.80
2019-03-31T20:42:42.735Z,44.60
2019-03-31T20:45:48.599Z,44.80
2019-03-31T20:48:54.663Z,45.70
2019-03-31T20:52:00.399Z,44.70
2019-03-31T20:55:16.112Z,44.00
2019-03-31T20:58:14.431Z,41.10
2019-03-31T21:01:20.223Z,43.10
2019-03-31T21:04:25.974Z,44.30
2019-03-31T21:07:31.739Z,44.40
2019-03-31T21:10:37.690Z,44.40
2019-03-31T21:13:43.485Z,44.40
2019-03-31T21:16:49.311Z,44.50
2019-03-31T21:19:55.070Z,44.50
2019-03-31T21:23:01.067Z,44.20
2019-03-31T21:26:06.780Z,44.30
2019-03-31T21:29:12.571Z,44.10
2019-03-31T21:32:18.391Z,44.20
2019-03-31T21:35:24.167Z,44.20
2019-03-31T21:38:29.932Z,43.90
2019-03-31T21:41:35.648Z,43.80
2019-03-31T21:44:41.551Z,43.60
2019-03-31T21:47:47.480Z,43.60
2019-03-31T21:50:53.232Z,43.50
2019-03-31T21:53:59.127Z,43.50
2019-03-31T21:57:04.954Z,43.10
2019-03-31T22:00:11.961Z,43.00
2019-03-31T22:03:19.357Z,42.90
2019-03-31T22:06:25.187Z,42.70
2019-03-31T22:09:30.984Z,42.60
2019-03-31T22:12:36.791Z,42.50
2019-03-31T22:15:42.563Z,42.40
2019-03-31T22:18:48.446Z,42.20
2019-03-31T22:21:54.272Z,42.10
2019-03-31T22:25:00.384Z,41.10
2019-03-31T22:28:06.287Z,42.10
2019-03-31T22:31:12.058Z,42.00
2019-03-31T22:34:18.063Z,41.70
2019-03-31T22:37:23.957Z,41.60
2019-03-31T22:40:29.820Z,41.40
2019-03-31T22:43:35.625Z,41.40
2019-03-31T22:46:53.784Z,41.10
2019-03-31T22:49:48.752Z,40.90
2019-03-31T22:52:54.473Z,40.90
2019-03-31T22:56:00.167Z,40.70
2019-03-31T22:59:05.928Z,40.60
2019-03-31T23:02:11.745Z,41.10
2019-03-31T23:05:17.640Z,40.40
2019-03-31T23:08:24.367Z,40.40
2019-03-31T23:11:31.264Z,40.30
2019-03-31T23:14:37.024Z,40.20
2019-03-31T23:17:47.883Z,40.10
2019-03-31T23:20:53.748Z,39.90
2019-03-31T23:23:59.858Z,39.80
2019-03-31T23:27:05.572Z,39.90
2019-03-31T23:30:12.031Z,39.80
2019-03-31T23:33:18.101Z,39.70
2019-03-31T23:36:23.750Z,39.60
2019-03-31T23:39:29.620Z,39.40
2019-03-31T23:42:35.260Z,39.40
2019-03-31T23:45:41.127Z,39.30
2019-03-31T23:48:46.980Z,39.30
2019-03-31T23:51:52.783Z,39.10
2019-03-31T23:54:58.704Z,39.10
2019-03-31T23:58:04.448Z,39.10
